sensor_id;sensor_type;location;lat;lon;timestamp;temperature;humidity
4390;DHT22;2209;48.982;8.406;2023-12-07T00:00:13;6.10;99.90
4390;DHT22;2209;48.982;8.406;2023-12-07T00:02:35;6.10;99.90
4390;DHT22;2209;48.982;8.406;2023-12-07T00:04:57;6.10;99.90
4390;DHT22;2209;48.982;8.406;2023-12-07T00:07:19;6.10;99.90
4390;DHT22;2209;48.982;8.406;2023-12-07T00:09:41;6.10;99.90
4390;DHT22;2209;48.982;8.406;2023-12-07T00:12:04;6.10;99.90
4390;DHT22;2209;48.982;8.406;2023-12-07T00:14:26;6.10;99.90
4390;DHT22;2209;48.982;8.406;2023-12-07T00:16:50;6.10;99.90
4390;DHT22;2209;48.982;8.406;2023-12-07T00:19:12;6.00;99.90
4390;DHT22;2209;48.982;8.406;2023-12-07T00:21:34;6.00;99.90
4390;DHT22;2209;48.982;8.406;2023-12-07T00:23:56;6.00;99.90
4390;DHT22;2209;48.982;8.406;2023-12-07T00:26:18;6.00;99.90
4390;DHT22;2209;48.982;8.406;2023-12-07T00:28:40;6.00;99.90
4390;DHT22;2209;48.982;8.406;2023-12-07T00:31:02;6.10;99.90
4390;DHT22;2209;48.982;8.406;2023-12-07T00:33:26;6.10;99.90
4390;DHT22;2209;48.982;8.406;2023-12-07T00:35:48;6.10;99.90
4390;DHT22;2209;48.982;8.406;2023-12-07T00:38:10;6.10;99.90
4390;DHT22;2209;48.982;8.406;2023-12-07T00:40:32;6.10;99.90
4390;DHT22;2209;48.982;8.406;2023-12-07T00:42:57;6.10;99.90
4390;DHT22;2209;48.982;8.406;2023-12-07T00:45:19;6.10;99.90
4390;DHT22;2209;48.982;8.406;2023-12-07T00:47:41;6.10;99.90
4390;DHT22;2209;48.982;8.406;2023-12-07T00:50:06;6.10;99.90
4390;DHT22;2209;48.982;8.406;2023-12-07T00:52:28;6.10;99.90
4390;DHT22;2209;48.982;8.406;2023-12-07T00:54:50;6.10;99.90
4390;DHT22;2209;48.982;8.406;2023-12-07T00:57:12;6.10;99.90
4390;DHT22;2209;48.982;8.406;2023-12-07T00:59:34;6.10;99.90
4390;DHT22;2209;48.982;8.406;2023-12-07T01:01:57;6.10;99.90
4390;DHT22;2209;48.982;8.406;2023-12-07T01:04:19;6.10;99.90
4390;DHT22;2209;48.982;8.406;2023-12-07T01:06:42;6.10;99.90
4390;DHT22;2209;48.982;8.406;2023-12-07T01:09:04;6.10;99.90
4390;DHT22;2209;48.982;8.406;2023-12-07T01:11:26;6.10;99.90
4390;DHT22;2209;48.982;8.406;2023-12-07T01:13:48;6.00;99.90
4390;DHT22;2209;48.982;8.406;2023-12-07T01:16:10;6.00;99.90
4390;DHT22;2209;48.982;8.406;2023-12-07T01:18:32;6.00;99.90
4390;DHT22;2209;48.982;8.406;2023-12-07T01:20:54;6.00;99.90
4390;DHT22;2209;48.982;8.406;2023-12-07T01:23:18;6.00;99.90
4390;DHT22;2209;48.982;8.406;2023-12-07T01:25:40;6.00;99.90
4390;DHT22;2209;48.982;8.406;2023-12-07T01:28:02;6.00;99.90
4390;DHT22;2209;48.982;8.406;2023-12-07T01:30:24;5.90;99.90
4390;DHT22;2209;48.982;8.406;2023-12-07T01:32:46;5.90;99.90
4390;DHT22;2209;48.982;8.406;2023-12-07T01:35:08;5.90;99.90
4390;DHT22;2209;48.982;8.406;2023-12-07T01:37:30;5.90;99.90
4390;DHT22;2209;48.982;8.406;2023-12-07T01:39:54;5.90;99.90
4390;DHT22;2209;48.982;8.406;2023-12-07T01:42:16;5.90;99.90
4390;DHT22;2209;48.982;8.406;2023-12-07T01:44:38;5.90;99.90
4390;DHT22;2209;48.982;8.406;2023-12-07T01:47:01;5.90;99.90
4390;DHT22;2209;48.982;8.406;2023-12-07T01:49:23;6.00;99.90
4390;DHT22;2209;48.982;8.406;2023-12-07T01:51:45;6.00;99.90
4390;DHT22;2209;48.982;8.406;2023-12-07T01:54:08;5.90;99.90
4390;DHT22;2209;48.982;8.406;2023-12-07T01:56:31;6.00;99.90
4390;DHT22;2209;48.982;8.406;2023-12-07T01:58:53;5.90;99.90
4390;DHT22;2209;48.982;8.406;2023-12-07T02:01:16;5.90;99.90
4390;DHT22;2209;48.982;8.406;2023-12-07T02:03:40;5.90;99.90
4390;DHT22;2209;48.982;8.406;2023-12-07T02:06:02;5.80;99.90
4390;DHT22;2209;48.982;8.406;2023-12-07T02:08:25;5.80;99.90
4390;DHT22;2209;48.982;8.406;2023-12-07T02:10:47;5.80;99.90
4390;DHT22;2209;48.982;8.406;2023-12-07T02:13:10;5.80;99.90
4390;DHT22;2209;48.982;8.406;2023-12-07T02:15:32;5.80;99.90
4390;DHT22;2209;48.982;8.406;2023-12-07T02:18:01;5.70;99.90
4390;DHT22;2209;48.982;8.406;2023-12-07T02:20:29;5.70;99.90
4390;DHT22;2209;48.982;8.406;2023-12-07T02:22:54;5.70;99.90
4390;DHT22;2209;48.982;8.406;2023-12-07T02:25:18;5.70;99.90
4390;DHT22;2209;48.982;8.406;2023-12-07T02:27:46;5.70;99.90
4390;DHT22;2209;48.982;8.406;2023-12-07T02:30:09;5.60;99.90
4390;DHT22;2209;48.982;8.406;2023-12-07T02:32:32;5.60;99.90
4390;DHT22;2209;48.982;8.406;2023-12-07T02:34:54;5.60;99.90
4390;DHT22;2209;48.982;8.406;2023-12-07T02:37:17;5.60;99.90
4390;DHT22;2209;48.982;8.406;2023-12-07T02:39:40;5.60;99.90
4390;DHT22;2209;48.982;8.406;2023-12-07T02:42:02;5.60;99.90
4390;DHT22;2209;48.982;8.406;2023-12-07T02:44:26;5.60;99.90
4390;DHT22;2209;48.982;8.406;2023-12-07T02:46:49;5.50;99.90
4390;DHT22;2209;48.982;8.406;2023-12-07T02:49:11;5.50;99.90
4390;DHT22;2209;48.982;8.406;2023-12-07T02:51:33;5.50;99.90
4390;DHT22;2209;48.982;8.406;2023-12-07T02:53:55;5.60;99.90
4390;DHT22;2209;48.982;8.406;2023-12-07T02:56:17;5.60;99.90
4390;DHT22;2209;48.982;8.406;2023-12-07T02:58:39;5.60;99.90
4390;DHT22;2209;48.982;8.406;2023-12-07T03:01:03;5.60;99.90
4390;DHT22;2209;48.982;8.406;2023-12-07T03:03:25;5.60;99.90
4390;DHT22;2209;48.982;8.406;2023-12-07T03:05:47;5.70;99.90
4390;DHT22;2209;48.982;8.406;2023-12-07T03:08:09;5.80;99.90
4390;DHT22;2209;48.982;8.406;2023-12-07T03:10:31;5.80;99.90
4390;DHT22;2209;48.982;8.406;2023-12-07T03:12:53;5.90;99.90
4390;DHT22;2209;48.982;8.406;2023-12-07T03:15:15;5.90;99.90
4390;DHT22;2209;48.982;8.406;2023-12-07T03:17:39;5.90;99.90
4390;DHT22;2209;48.982;8.406;2023-12-07T03:20:01;5.90;99.90
4390;DHT22;2209;48.982;8.406;2023-12-07T03:22:24;5.90;99.90
4390;DHT22;2209;48.982;8.406;2023-12-07T03:24:50;5.80;99.90
4390;DHT22;2209;48.982;8.406;2023-12-07T03:27:12;5.70;99.90
4390;DHT22;2209;48.982;8.406;2023-12-07T03:29:34;5.70;99.90
4390;DHT22;2209;48.982;8.406;2023-12-07T03:31:56;5.60;99.90
4390;DHT22;2209;48.982;8.406;2023-12-07T03:34:20;5.50;99.90
4390;DHT22;2209;48.982;8.406;2023-12-07T03:36:42;5.50;99.90
4390;DHT22;2209;48.982;8.406;2023-12-07T03:39:04;5.50;99.90
4390;DHT22;2209;48.982;8.406;2023-12-07T03:41:26;5.40;99.90
4390;DHT22;2209;48.982;8.406;2023-12-07T03:43:49;5.40;99.90
4390;DHT22;2209;48.982;8.406;2023-12-07T03:46:11;5.30;99.90
4390;DHT22;2209;48.982;8.406;2023-12-07T03:48:33;5.30;99.90
4390;DHT22;2209;48.982;8.406;2023-12-07T03:50:56;5.20;99.90
4390;DHT22;2209;48.982;8.406;2023-12-07T03:53:18;5.20;99.90
4390;DHT22;2209;48.982;8.406;2023-12-07T03:55:41;5.20;99.90
4390;DHT22;2209;48.982;8.406;2023-12-07T03:58:03;5.10;99.90
4390;DHT22;2209;48.982;8.406;2023-12-07T04:00:25;5.10;99.90
4390;DHT22;2209;48.982;8.406;2023-12-07T04:02:47;5.10;99.90
4390;DHT22;2209;48.982;8.406;2023-12-07T04:05:09;5.10;99.90
4390;DHT22;2209;48.982;8.406;2023-12-07T04:07:34;5.10;99.90
4390;DHT22;2209;48.982;8.406;2023-12-07T04:09:56;5.10;99.90
4390;DHT22;2209;48.982;8.406;2023-12-07T04:12:19;5.10;99.90
4390;DHT22;2209;48.982;8.406;2023-12-07T04:14:41;5.00;99.90
4390;DHT22;2209;48.982;8.406;2023-12-07T04:17:04;5.00;99.90
4390;DHT22;2209;48.982;8.406;2023-12-07T04:19:26;5.00;99.90
4390;DHT22;2209;48.982;8.406;2023-12-07T04:21:48;5.00;99.90
4390;DHT22;2209;48.982;8.406;2023-12-07T04:24:11;5.00;99.90
4390;DHT22;2209;48.982;8.406;2023-12-07T04:26:33;5.00;99.90
4390;DHT22;2209;48.982;8.406;2023-12-07T04:28:55;5.00;99.90
4390;DHT22;2209;48.982;8.406;2023-12-07T04:31:17;5.00;99.90
4390;DHT22;2209;48.982;8.406;2023-12-07T04:33:39;5.00;99.90
4390;DHT22;2209;48.982;8.406;2023-12-07T04:36:02;4.90;99.90
4390;DHT22;2209;48.982;8.406;2023-12-07T04:38:25;4.90;99.90
4390;DHT22;2209;48.982;8.406;2023-12-07T04:40:48;4.90;99.90
4390;DHT22;2209;48.982;8.406;2023-12-07T04:43:11;4.90;99.90
4390;DHT22;2209;48.982;8.406;2023-12-07T04:45:33;4.80;99.90
4390;DHT22;2209;48.982;8.406;2023-12-07T04:47:55;4.80;99.90
4390;DHT22;2209;48.982;8.406;2023-12-07T04:50:18;4.80;99.90
4390;DHT22;2209;48.982;8.406;2023-12-07T04:52:40;4.80;99.90
4390;DHT22;2209;48.982;8.406;2023-12-07T04:55:02;4.80;99.90
4390;DHT22;2209;48.982;8.406;2023-12-07T04:57:26;4.80;99.90
4390;DHT22;2209;48.982;8.406;2023-12-07T04:59:48;4.70;99.90
4390;DHT22;2209;48.982;8.406;2023-12-07T05:02:10;4.70;99.90
4390;DHT22;2209;48.982;8.406;2023-12-07T05:04:32;4.70;99.90
4390;DHT22;2209;48.982;8.406;2023-12-07T05:06:54;4.70;99.90
4390;DHT22;2209;48.982;8.406;2023-12-07T05:09:16;4.70;99.90
4390;DHT22;2209;48.982;8.406;2023-12-07T05:11:39;4.70;99.90
4390;DHT22;2209;48.982;8.406;2023-12-07T05:14:02;4.70;99.90
4390;DHT22;2209;48.982;8.406;2023-12-07T05:16:24;4.70;99.90
4390;DHT22;2209;48.982;8.406;2023-12-07T05:18:46;4.70;99.90
4390;DHT22;2209;48.982;8.406;2023-12-07T05:21:08;4.70;99.90
4390;DHT22;2209;48.982;8.406;2023-12-07T05:23:30;4.60;99.90
4390;DHT22;2209;48.982;8.406;2023-12-07T05:25:52;4.60;99.90
4390;DHT22;2209;48.982;8.406;2023-12-07T05:28:15;4.60;99.90
4390;DHT22;2209;48.982;8.406;2023-12-07T05:30:38;4.60;99.90
4390;DHT22;2209;48.982;8.406;2023-12-07T05:33:01;4.50;99.90
4390;DHT22;2209;48.982;8.406;2023-12-07T05:35:23;4.50;99.90
4390;DHT22;2209;48.982;8.406;2023-12-07T05:37:45;4.50;99.90
4390;DHT22;2209;48.982;8.406;2023-12-07T05:40:08;4.50;99.90
4390;DHT22;2209;48.982;8.406;2023-12-07T05:42:32;4.50;99.90
4390;DHT22;2209;48.982;8.406;2023-12-07T05:44:55;4.40;99.90
4390;DHT22;2209;48.982;8.406;2023-12-07T05:47:18;4.40;99.90
4390;DHT22;2209;48.982;8.406;2023-12-07T05:49:40;4.40;99.90
4390;DHT22;2209;48.982;8.406;2023-12-07T05:52:03;4.40;99.90
4390;DHT22;2209;48.982;8.406;2023-12-07T05:54:25;4.30;99.90
4390;DHT22;2209;48.982;8.406;2023-12-07T05:56:47;4.30;99.90
4390;DHT22;2209;48.982;8.406;2023-12-07T05:59:09;4.30;99.90
4390;DHT22;2209;48.982;8.406;2023-12-07T06:01:31;4.30;99.90
4390;DHT22;2209;48.982;8.406;2023-12-07T06:03:55;4.30;99.90
4390;DHT22;2209;48.982;8.406;2023-12-07T06:06:17;4.30;99.90
4390;DHT22;2209;48.982;8.406;2023-12-07T06:08:39;4.30;99.90
4390;DHT22;2209;48.982;8.406;2023-12-07T06:11:02;4.30;99.90
4390;DHT22;2209;48.982;8.406;2023-12-07T06:13:24;4.20;99.90
4390;DHT22;2209;48.982;8.406;2023-12-07T06:15:46;4.20;99.90
4390;DHT22;2209;48.982;8.406;2023-12-07T06:18:08;4.20;99.90
4390;DHT22;2209;48.982;8.406;2023-12-07T06:20:32;4.20;99.90
4390;DHT22;2209;48.982;8.406;2023-12-07T06:22:54;4.20;99.90
4390;DHT22;2209;48.982;8.406;2023-12-07T06:25:16;4.20;99.90
4390;DHT22;2209;48.982;8.406;2023-12-07T06:27:38;4.20;99.90
4390;DHT22;2209;48.982;8.406;2023-12-07T06:30:01;4.20;99.90
4390;DHT22;2209;48.982;8.406;2023-12-07T06:32:24;4.20;99.90
4390;DHT22;2209;48.982;8.406;2023-12-07T06:34:47;4.20;99.90
4390;DHT22;2209;48.982;8.406;2023-12-07T06:37:10;4.20;99.90
4390;DHT22;2209;48.982;8.406;2023-12-07T06:39:32;4.20;99.90
4390;DHT22;2209;48.982;8.406;2023-12-07T06:41:54;4.20;99.90
4390;DHT22;2209;48.982;8.406;2023-12-07T06:44:16;4.10;99.90
4390;DHT22;2209;48.982;8.406;2023-12-07T06:46:38;4.10;99.90
4390;DHT22;2209;48.982;8.406;2023-12-07T06:49:01;4.10;99.90
4390;DHT22;2209;48.982;8.406;2023-12-07T06:51:23;4.10;99.90
4390;DHT22;2209;48.982;8.406;2023-12-07T06:53:46;4.10;99.90
4390;DHT22;2209;48.982;8.406;2023-12-07T06:56:09;4.10;99.90
4390;DHT22;2209;48.982;8.406;2023-12-07T06:58:31;4.10;99.90
4390;DHT22;2209;48.982;8.406;2023-12-07T07:00:53;4.10;99.90
4390;DHT22;2209;48.982;8.406;2023-12-07T07:03:15;4.10;99.90
4390;DHT22;2209;48.982;8.406;2023-12-07T07:05:37;4.10;99.90
4390;DHT22;2209;48.982;8.406;2023-12-07T07:08:00;4.10;99.90
4390;DHT22;2209;48.982;8.406;2023-12-07T07:10:23;4.10;99.90
4390;DHT22;2209;48.982;8.406;2023-12-07T07:12:45;4.10;99.90
4390;DHT22;2209;48.982;8.406;2023-12-07T07:15:08;4.10;99.90
4390;DHT22;2209;48.982;8.406;2023-12-07T07:17:30;4.10;99.90
4390;DHT22;2209;48.982;8.406;2023-12-07T07:19:53;4.10;99.90
4390;DHT22;2209;48.982;8.406;2023-12-07T07:22:16;4.10;99.90
4390;DHT22;2209;48.982;8.406;2023-12-07T07:24:38;4.10;99.90
4390;DHT22;2209;48.982;8.406;2023-12-07T07:27:01;4.00;99.90
4390;DHT22;2209;48.982;8.406;2023-12-07T07:29:23;4.00;99.90
4390;DHT22;2209;48.982;8.406;2023-12-07T07:31:45;4.00;99.90
4390;DHT22;2209;48.982;8.406;2023-12-07T07:34:07;4.00;99.90
4390;DHT22;2209;48.982;8.406;2023-12-07T07:36:29;3.90;99.90
4390;DHT22;2209;48.982;8.406;2023-12-07T07:38:51;3.90;99.90
4390;DHT22;2209;48.982;8.406;2023-12-07T07:41:14;3.90;99.90
4390;DHT22;2209;48.982;8.406;2023-12-07T07:43:37;3.90;99.90
4390;DHT22;2209;48.982;8.406;2023-12-07T07:45:59;3.90;99.90
4390;DHT22;2209;48.982;8.406;2023-12-07T07:48:21;3.90;99.90
4390;DHT22;2209;48.982;8.406;2023-12-07T07:50:43;3.90;99.90
4390;DHT22;2209;48.982;8.406;2023-12-07T07:53:05;3.90;99.90
4390;DHT22;2209;48.982;8.406;2023-12-07T07:55:27;3.90;99.90
4390;DHT22;2209;48.982;8.406;2023-12-07T07:57:49;4.00;99.90
4390;DHT22;2209;48.982;8.406;2023-12-07T08:00:14;4.10;99.90
4390;DHT22;2209;48.982;8.406;2023-12-07T08:02:36;4.10;99.90
4390;DHT22;2209;48.982;8.406;2023-12-07T08:04:58;4.20;99.90
4390;DHT22;2209;48.982;8.406;2023-12-07T08:07:20;4.20;99.90
4390;DHT22;2209;48.982;8.406;2023-12-07T08:09:42;4.20;99.90
4390;DHT22;2209;48.982;8.406;2023-12-07T08:12:04;4.10;99.90
4390;DHT22;2209;48.982;8.406;2023-12-07T08:14:27;4.10;99.90
4390;DHT22;2209;48.982;8.406;2023-12-07T08:16:50;4.00;99.90
4390;DHT22;2209;48.982;8.406;2023-12-07T08:19:13;4.00;99.90
4390;DHT22;2209;48.982;8.406;2023-12-07T08:21:35;3.90;99.90
4390;DHT22;2209;48.982;8.406;2023-12-07T08:23:57;3.90;99.90
4390;DHT22;2209;48.982;8.406;2023-12-07T08:26:19;3.90;99.90
4390;DHT22;2209;48.982;8.406;2023-12-07T08:28:41;3.90;99.90
4390;DHT22;2209;48.982;8.406;2023-12-07T08:31:03;3.90;99.90
4390;DHT22;2209;48.982;8.406;2023-12-07T08:33:28;3.90;99.90
4390;DHT22;2209;48.982;8.406;2023-12-07T08:35:50;3.90;99.90
4390;DHT22;2209;48.982;8.406;2023-12-07T08:38:15;3.90;99.90
4390;DHT22;2209;48.982;8.406;2023-12-07T08:40:37;3.90;99.90
4390;DHT22;2209;48.982;8.406;2023-12-07T08:42:59;3.80;99.90
4390;DHT22;2209;48.982;8.406;2023-12-07T08:45:21;3.80;99.90
4390;DHT22;2209;48.982;8.406;2023-12-07T08:47:44;3.80;99.90
4390;DHT22;2209;48.982;8.406;2023-12-07T08:50:08;3.80;99.90
4390;DHT22;2209;48.982;8.406;2023-12-07T08:52:30;3.80;99.90
4390;DHT22;2209;48.982;8.406;2023-12-07T08:54:53;3.80;99.90
4390;DHT22;2209;48.982;8.406;2023-12-07T08:57:17;3.80;99.90
4390;DHT22;2209;48.982;8.406;2023-12-07T08:59:39;3.80;99.90
4390;DHT22;2209;48.982;8.406;2023-12-07T09:02:01;3.90;99.90
4390;DHT22;2209;48.982;8.406;2023-12-07T09:04:23;3.90;99.90
4390;DHT22;2209;48.982;8.406;2023-12-07T09:06:47;3.90;99.90
4390;DHT22;2209;48.982;8.406;2023-12-07T09:09:09;4.00;99.90
4390;DHT22;2209;48.982;8.406;2023-12-07T09:11:32;4.00;99.90
4390;DHT22;2209;48.982;8.406;2023-12-07T09:13:54;4.00;99.90
4390;DHT22;2209;48.982;8.406;2023-12-07T09:16:16;4.00;99.90
4390;DHT22;2209;48.982;8.406;2023-12-07T09:18:38;4.00;99.90
4390;DHT22;2209;48.982;8.406;2023-12-07T09:21:00;4.00;99.90
4390;DHT22;2209;48.982;8.406;2023-12-07T09:23:25;3.90;99.90
4390;DHT22;2209;48.982;8.406;2023-12-07T09:25:47;4.00;99.90
4390;DHT22;2209;48.982;8.406;2023-12-07T09:28:08;4.00;99.90
4390;DHT22;2209;48.982;8.406;2023-12-07T09:30:30;4.00;99.90
4390;DHT22;2209;48.982;8.406;2023-12-07T09:32:54;4.00;99.90
4390;DHT22;2209;48.982;8.406;2023-12-07T09:35:16;4.00;99.90
4390;DHT22;2209;48.982;8.406;2023-12-07T09:37:40;4.00;99.90
4390;DHT22;2209;48.982;8.406;2023-12-07T09:40:04;4.00;99.90
4390;DHT22;2209;48.982;8.406;2023-12-07T09:42:27;4.00;99.90
4390;DHT22;2209;48.982;8.406;2023-12-07T09:44:49;4.00;99.90
4390;DHT22;2209;48.982;8.406;2023-12-07T09:47:12;4.00;99.90
4390;DHT22;2209;48.982;8.406;2023-12-07T09:49:35;4.00;99.90
4390;DHT22;2209;48.982;8.406;2023-12-07T09:51:58;4.00;99.90
4390;DHT22;2209;48.982;8.406;2023-12-07T09:54:20;4.00;99.90
4390;DHT22;2209;48.982;8.406;2023-12-07T09:56:45;4.00;99.90
4390;DHT22;2209;48.982;8.406;2023-12-07T09:59:07;4.00;99.90
4390;DHT22;2209;48.982;8.406;2023-12-07T10:01:29;4.10;99.90
4390;DHT22;2209;48.982;8.406;2023-12-07T10:04:14;4.10;99.90
4390;DHT22;2209;48.982;8.406;2023-12-07T10:06:42;4.10;99.90
4390;DHT22;2209;48.982;8.406;2023-12-07T10:09:05;4.10;99.90
4390;DHT22;2209;48.982;8.406;2023-12-07T10:11:27;4.10;99.90
4390;DHT22;2209;48.982;8.406;2023-12-07T10:13:51;4.10;99.90
4390;DHT22;2209;48.982;8.406;2023-12-07T10:16:14;4.10;99.90
4390;DHT22;2209;48.982;8.406;2023-12-07T10:18:37;4.10;99.90
4390;DHT22;2209;48.982;8.406;2023-12-07T10:21:01;4.10;99.90
4390;DHT22;2209;48.982;8.406;2023-12-07T10:23:23;4.20;99.90
4390;DHT22;2209;48.982;8.406;2023-12-07T10:25:47;4.20;99.90
4390;DHT22;2209;48.982;8.406;2023-12-07T10:28:10;4.30;99.90
4390;DHT22;2209;48.982;8.406;2023-12-07T10:30:34;4.30;99.90
4390;DHT22;2209;48.982;8.406;2023-12-07T10:32:56;4.40;99.90
4390;DHT22;2209;48.982;8.406;2023-12-07T10:35:19;4.30;99.90
4390;DHT22;2209;48.982;8.406;2023-12-07T10:37:41;4.40;99.90
4390;DHT22;2209;48.982;8.406;2023-12-07T10:40:04;4.40;99.90
4390;DHT22;2209;48.982;8.406;2023-12-07T10:42:32;4.40;99.90
4390;DHT22;2209;48.982;8.406;2023-12-07T10:44:58;4.40;99.90
4390;DHT22;2209;48.982;8.406;2023-12-07T10:47:26;4.40;99.90
4390;DHT22;2209;48.982;8.406;2023-12-07T10:49:52;4.50;99.90
4390;DHT22;2209;48.982;8.406;2023-12-07T10:52:19;4.50;99.90
4390;DHT22;2209;48.982;8.406;2023-12-07T10:54:47;4.50;99.90
4390;DHT22;2209;48.982;8.406;2023-12-07T10:57:12;4.50;99.90
4390;DHT22;2209;48.982;8.406;2023-12-07T10:59:35;4.50;99.90
4390;DHT22;2209;48.982;8.406;2023-12-07T11:01:58;4.50;99.90
4390;DHT22;2209;48.982;8.406;2023-12-07T11:04:22;4.60;99.90
4390;DHT22;2209;48.982;8.406;2023-12-07T11:06:49;4.60;99.90
4390;DHT22;2209;48.982;8.406;2023-12-07T11:09:15;4.70;99.90
4390;DHT22;2209;48.982;8.406;2023-12-07T11:11:41;4.80;99.90
4390;DHT22;2209;48.982;8.406;2023-12-07T11:14:07;4.80;99.90
4390;DHT22;2209;48.982;8.406;2023-12-07T11:16:34;4.90;99.90
4390;DHT22;2209;48.982;8.406;2023-12-07T11:18:58;4.90;99.90
4390;DHT22;2209;48.982;8.406;2023-12-07T11:21:22;4.90;99.90
4390;DHT22;2209;48.982;8.406;2023-12-07T11:23:44;4.90;99.90
4390;DHT22;2209;48.982;8.406;2023-12-07T11:26:06;4.90;99.90
4390;DHT22;2209;48.982;8.406;2023-12-07T11:28:34;4.90;99.90
4390;DHT22;2209;48.982;8.406;2023-12-07T11:30:57;5.00;99.90
4390;DHT22;2209;48.982;8.406;2023-12-07T11:33:19;5.00;99.90
4390;DHT22;2209;48.982;8.406;2023-12-07T11:36:03;5.10;99.90
4390;DHT22;2209;48.982;8.406;2023-12-07T11:38:27;5.10;99.90
4390;DHT22;2209;48.982;8.406;2023-12-07T11:40:49;5.10;99.90
4390;DHT22;2209;48.982;8.406;2023-12-07T11:43:17;5.20;99.90
4390;DHT22;2209;48.982;8.406;2023-12-07T11:45:40;5.20;99.90
4390;DHT22;2209;48.982;8.406;2023-12-07T11:48:09;5.20;99.90
4390;DHT22;2209;48.982;8.406;2023-12-07T11:50:31;5.20;99.90
4390;DHT22;2209;48.982;8.406;2023-12-07T11:52:53;5.30;99.90
4390;DHT22;2209;48.982;8.406;2023-12-07T11:55:17;5.30;99.90
4390;DHT22;2209;48.982;8.406;2023-12-07T11:57:39;5.30;99.90
4390;DHT22;2209;48.982;8.406;2023-12-07T12:00:01;5.30;99.90
4390;DHT22;2209;48.982;8.406;2023-12-07T12:02:23;5.40;99.90
4390;DHT22;2209;48.982;8.406;2023-12-07T12:04:46;5.40;99.90
4390;DHT22;2209;48.982;8.406;2023-12-07T12:07:08;5.40;99.90
4390;DHT22;2209;48.982;8.406;2023-12-07T12:09:30;5.50;99.90
4390;DHT22;2209;48.982;8.406;2023-12-07T12:11:57;5.50;99.90
4390;DHT22;2209;48.982;8.406;2023-12-07T12:14:20;5.50;99.90
4390;DHT22;2209;48.982;8.406;2023-12-07T12:16:43;5.60;99.90
4390;DHT22;2209;48.982;8.406;2023-12-07T12:19:05;5.60;99.90
4390;DHT22;2209;48.982;8.406;2023-12-07T12:21:27;5.60;99.90
4390;DHT22;2209;48.982;8.406;2023-12-07T12:23:51;5.70;99.90
4390;DHT22;2209;48.982;8.406;2023-12-07T12:26:14;5.70;99.90
4390;DHT22;2209;48.982;8.406;2023-12-07T12:28:38;5.70;99.90
4390;DHT22;2209;48.982;8.406;2023-12-07T12:31:03;5.70;99.90
4390;DHT22;2209;48.982;8.406;2023-12-07T12:33:25;5.70;99.90
4390;DHT22;2209;48.982;8.406;2023-12-07T12:36:01;5.80;99.90
4390;DHT22;2209;48.982;8.406;2023-12-07T12:38:24;5.80;99.90
4390;DHT22;2209;48.982;8.406;2023-12-07T12:40:46;5.90;99.90
4390;DHT22;2209;48.982;8.406;2023-12-07T12:43:08;6.00;99.90
4390;DHT22;2209;48.982;8.406;2023-12-07T12:45:33;6.00;99.90
4390;DHT22;2209;48.982;8.406;2023-12-07T12:47:55;6.00;99.90
4390;DHT22;2209;48.982;8.406;2023-12-07T12:50:38;6.00;99.90
4390;DHT22;2209;48.982;8.406;2023-12-07T12:53:03;6.00;99.90
4390;DHT22;2209;48.982;8.406;2023-12-07T12:55:25;6.10;99.90
4390;DHT22;2209;48.982;8.406;2023-12-07T12:57:47;6.10;99.90
4390;DHT22;2209;48.982;8.406;2023-12-07T13:00:13;6.10;99.90
4390;DHT22;2209;48.982;8.406;2023-12-07T13:02:36;6.20;99.90
4390;DHT22;2209;48.982;8.406;2023-12-07T13:04:59;6.20;99.90
4390;DHT22;2209;48.982;8.406;2023-12-07T13:07:21;6.20;99.90
4390;DHT22;2209;48.982;8.406;2023-12-07T13:09:45;6.30;99.90
4390;DHT22;2209;48.982;8.406;2023-12-07T13:12:07;6.30;99.90
4390;DHT22;2209;48.982;8.406;2023-12-07T13:14:29;6.30;99.90
4390;DHT22;2209;48.982;8.406;2023-12-07T13:16:52;6.30;99.90
4390;DHT22;2209;48.982;8.406;2023-12-07T13:19:15;6.30;99.90
4390;DHT22;2209;48.982;8.406;2023-12-07T13:21:37;6.40;99.90
4390;DHT22;2209;48.982;8.406;2023-12-07T13:23:59;6.40;99.90
4390;DHT22;2209;48.982;8.406;2023-12-07T13:26:21;6.40;99.90
4390;DHT22;2209;48.982;8.406;2023-12-07T13:28:44;6.50;99.90
4390;DHT22;2209;48.982;8.406;2023-12-07T13:31:06;6.50;99.90
4390;DHT22;2209;48.982;8.406;2023-12-07T13:33:28;6.60;99.90
4390;DHT22;2209;48.982;8.406;2023-12-07T13:35:52;6.60;99.90
4390;DHT22;2209;48.982;8.406;2023-12-07T13:38:15;6.60;99.90
4390;DHT22;2209;48.982;8.406;2023-12-07T13:40:40;6.60;99.90
4390;DHT22;2209;48.982;8.406;2023-12-07T13:43:02;6.60;99.90
4390;DHT22;2209;48.982;8.406;2023-12-07T13:45:25;6.60;99.90
4390;DHT22;2209;48.982;8.406;2023-12-07T13:47:47;6.60;99.90
4390;DHT22;2209;48.982;8.406;2023-12-07T13:50:09;6.60;99.90
4390;DHT22;2209;48.982;8.406;2023-12-07T13:52:32;6.60;99.90
4390;DHT22;2209;48.982;8.406;2023-12-07T13:54:54;6.60;99.90
4390;DHT22;2209;48.982;8.406;2023-12-07T13:57:17;6.60;99.90
4390;DHT22;2209;48.982;8.406;2023-12-07T13:59:40;6.60;99.90
4390;DHT22;2209;48.982;8.406;2023-12-07T14:02:02;6.60;99.90
4390;DHT22;2209;48.982;8.406;2023-12-07T14:04:24;6.60;99.90
4390;DHT22;2209;48.982;8.406;2023-12-07T14:06:46;6.60;99.90
4390;DHT22;2209;48.982;8.406;2023-12-07T14:09:09;6.60;99.90
4390;DHT22;2209;48.982;8.406;2023-12-07T14:11:31;6.50;99.90
4390;DHT22;2209;48.982;8.406;2023-12-07T14:13:53;6.60;99.90
4390;DHT22;2209;48.982;8.406;2023-12-07T14:16:15;6.50;99.90
4390;DHT22;2209;48.982;8.406;2023-12-07T14:18:38;6.50;99.90
4390;DHT22;2209;48.982;8.406;2023-12-07T14:21:00;6.60;99.90
4390;DHT22;2209;48.982;8.406;2023-12-07T14:23:22;6.60;99.90
4390;DHT22;2209;48.982;8.406;2023-12-07T14:25:45;6.70;99.90
4390;DHT22;2209;48.982;8.406;2023-12-07T14:28:09;6.70;99.90
4390;DHT22;2209;48.982;8.406;2023-12-07T14:30:31;6.60;99.90
4390;DHT22;2209;48.982;8.406;2023-12-07T14:32:53;6.60;99.90
4390;DHT22;2209;48.982;8.406;2023-12-07T14:35:15;6.60;99.90
4390;DHT22;2209;48.982;8.406;2023-12-07T14:37:38;6.50;99.90
4390;DHT22;2209;48.982;8.406;2023-12-07T14:40:02;6.50;99.90
4390;DHT22;2209;48.982;8.406;2023-12-07T14:42:27;6.50;99.90
4390;DHT22;2209;48.982;8.406;2023-12-07T14:44:49;6.40;99.90
4390;DHT22;2209;48.982;8.406;2023-12-07T14:47:11;6.40;99.90
4390;DHT22;2209;48.982;8.406;2023-12-07T14:49:33;6.30;99.90
4390;DHT22;2209;48.982;8.406;2023-12-07T14:51:55;6.30;99.90
4390;DHT22;2209;48.982;8.406;2023-12-07T14:54:19;6.20;99.90
4390;DHT22;2209;48.982;8.406;2023-12-07T14:56:42;6.20;99.90
4390;DHT22;2209;48.982;8.406;2023-12-07T14:59:06;6.20;99.90
4390;DHT22;2209;48.982;8.406;2023-12-07T15:01:31;6.10;99.90
4390;DHT22;2209;48.982;8.406;2023-12-07T15:03:54;6.10;99.90
4390;DHT22;2209;48.982;8.406;2023-12-07T15:06:16;6.10;99.90
4390;DHT22;2209;48.982;8.406;2023-12-07T15:08:38;6.10;99.90
4390;DHT22;2209;48.982;8.406;2023-12-07T15:11:00;6.10;99.90
4390;DHT22;2209;48.982;8.406;2023-12-07T15:13:21;6.00;99.90
4390;DHT22;2209;48.982;8.406;2023-12-07T15:15:45;6.00;99.90
4390;DHT22;2209;48.982;8.406;2023-12-07T15:18:07;6.00;99.90
4390;DHT22;2209;48.982;8.406;2023-12-07T15:20:29;6.00;99.90
4390;DHT22;2209;48.982;8.406;2023-12-07T15:22:51;5.90;99.90
4390;DHT22;2209;48.982;8.406;2023-12-07T15:25:13;5.90;99.90
4390;DHT22;2209;48.982;8.406;2023-12-07T15:27:35;5.90;99.90
4390;DHT22;2209;48.982;8.406;2023-12-07T15:29:57;5.90;99.90
4390;DHT22;2209;48.982;8.406;2023-12-07T15:32:20;5.90;99.90
4390;DHT22;2209;48.982;8.406;2023-12-07T15:34:43;5.90;99.90
4390;DHT22;2209;48.982;8.406;2023-12-07T15:37:05;5.90;99.90
4390;DHT22;2209;48.982;8.406;2023-12-07T15:39:27;5.90;99.90
4390;DHT22;2209;48.982;8.406;2023-12-07T15:41:51;5.80;99.90
4390;DHT22;2209;48.982;8.406;2023-12-07T15:44:13;5.80;99.90
4390;DHT22;2209;48.982;8.406;2023-12-07T15:46:35;5.80;99.90